Babcock, Illinois
Current Conditions -  °F | °C
As of 5:52 PM on Saturday 25 Oct 2014 (Local Time) from KMLI Reporting Station
Clear Clear  
Wind Chill: 67°   Ceiling: Unl
Heat Index: 67°   Visibility: 10mi
Dew Point: 33°   Wind: 9mph
Humidity: 28%   Direction: 300°WNW
Pressure: 30"   Gusts: NA
Location:  41.5228°N, 90.3951°W
Report Text: KMLI 252252Z 30008KT 10SM CLR 19/01 A3000 RMK AO2 SLP159 T01940006 $
Loading
Personal Weather Stations






























Interactive Weather Map
Tropical Storm Tracking
New forecast layout! Learn more

10-Day Weather Forecast

Advertisements
Track Severe Weather on mobile